createdAt,value
2017-03-24T00:00:05.635Z,18.27
2017-03-24T00:00:46.285Z,18.29
2017-03-24T00:01:26.917Z,18.39
2017-03-24T00:02:07.546Z,18.31
2017-03-24T00:02:48.185Z,18.31
2017-03-24T00:03:28.846Z,18.28
2017-03-24T00:04:09.471Z,18.29
2017-03-24T00:04:50.104Z,18.33
2017-03-24T00:05:30.756Z,18.29
2017-03-24T00:06:11.396Z,18.31
2017-03-24T00:06:52.028Z,18.28
2017-03-24T00:07:32.700Z,18.31
2017-03-24T00:08:13.337Z,18.28
2017-03-24T00:08:53.973Z,18.31
2017-03-24T00:09:34.616Z,18.31
2017-03-24T00:10:15.259Z,18.33
2017-03-24T00:10:55.890Z,18.31
2017-03-24T00:11:36.527Z,18.21
2017-03-24T00:12:17.159Z,18.31
2017-03-24T00:12:57.787Z,18.27
2017-03-24T00:13:38.458Z,18.28
2017-03-24T00:14:19.124Z,18.24
2017-03-24T00:14:59.752Z,18.29
2017-03-24T00:15:40.491Z,18.24
2017-03-24T00:16:21.144Z,18.28
2017-03-24T00:17:01.775Z,18.22
2017-03-24T00:17:42.438Z,18.25
2017-03-24T00:18:23.073Z,18.19
2017-03-24T00:19:03.762Z,18.24
2017-03-24T00:19:44.324Z,18.19
2017-03-24T00:20:24.999Z,18.29
2017-03-24T00:21:05.735Z,18.19
2017-03-24T00:21:46.382Z,18.21
2017-03-24T00:22:27.041Z,18.1
2017-03-24T00:23:07.666Z,18.19
2017-03-24T00:23:48.318Z,18.21
2017-03-24T00:24:28.955Z,18.19
2017-03-24T00:25:09.611Z,18.17
2017-03-24T00:25:50.245Z,18.18
2017-03-24T00:26:30.892Z,18.17
2017-03-24T00:27:11.518Z,18.17
2017-03-24T00:27:52.144Z,18.1
2017-03-24T00:28:32.808Z,18.13
2017-03-24T00:29:13.450Z,18.17
2017-03-24T00:29:54.086Z,18.13
2017-03-24T00:30:34.713Z,18.17
2017-03-24T00:31:15.342Z,18.15
2017-03-24T00:31:55.978Z,18.1
2017-03-24T00:32:36.676Z,18.12
2017-03-24T00:33:17.386Z,18.09
2017-03-24T00:33:58.014Z,18.13
2017-03-24T00:34:38.686Z,18.12
2017-03-24T00:35:19.394Z,18.09
2017-03-24T00:36:00.032Z,18.17
2017-03-24T00:36:40.648Z,18.07
2017-03-24T00:37:21.343Z,18.06
2017-03-24T00:38:01.982Z,18.03
2017-03-24T00:38:42.611Z,18.15
2017-03-24T00:39:23.304Z,18.1
2017-03-24T00:40:03.977Z,18.13
2017-03-24T00:40:44.619Z,18.07
2017-03-24T00:41:25.318Z,18.13
2017-03-24T00:42:06.015Z,18.07
2017-03-24T00:42:46.637Z,18.06
2017-03-24T00:43:27.343Z,18.07
2017-03-24T00:44:07.992Z,18.07
2017-03-24T00:44:48.624Z,18.02
2017-03-24T00:45:29.259Z,18.07
2017-03-24T00:46:09.975Z,18.06
2017-03-24T00:46:50.615Z,18.09
2017-03-24T00:47:31.254Z,18.03
2017-03-24T00:48:11.933Z,18.02
2017-03-24T00:48:52.634Z,18.03
2017-03-24T00:49:33.268Z,18.02
2017-03-24T00:50:13.976Z,18.07
2017-03-24T00:50:54.700Z,18.07
2017-03-24T00:51:35.321Z,18.03
2017-03-24T00:52:16.047Z,18.07
2017-03-24T00:52:56.762Z,18.03
2017-03-24T00:53:37.397Z,18.09
2017-03-24T00:54:18.044Z,18.1
2017-03-24T00:54:58.681Z,18.02
2017-03-24T00:55:39.359Z,17.91
2017-03-24T00:56:19.986Z,18.09
2017-03-24T00:57:00.659Z,18.04
2017-03-24T00:57:41.293Z,17.97
2017-03-24T00:58:21.932Z,17.95
2017-03-24T00:59:02.661Z,18
2017-03-24T00:59:43.347Z,17.91
2017-03-24T01:00:23.973Z,18.03
2017-03-24T01:01:04.651Z,17.94
2017-03-24T01:01:45.380Z,17.97
2017-03-24T01:02:26.041Z,17.95
2017-03-24T01:03:06.686Z,17.95
2017-03-24T01:03:47.396Z,17.94
2017-03-24T01:04:28.025Z,17.97
2017-03-24T01:05:08.660Z,17.95
2017-03-24T01:05:49.355Z,18.02
2017-03-24T01:06:30.095Z,17.99
2017-03-24T01:07:10.726Z,17.94
2017-03-24T01:07:51.375Z,17.89
2017-03-24T01:08:32.104Z,17.97
2017-03-24T01:09:12.764Z,17.99
2017-03-24T01:09:53.402Z,17.95
2017-03-24T01:10:34.146Z,17.84
2017-03-24T01:11:14.875Z,17.97
2017-03-24T01:11:55.503Z,17.95
2017-03-24T01:12:36.182Z,17.89
2017-03-24T01:13:16.909Z,17.87
2017-03-24T01:13:57.672Z,17.95
2017-03-24T01:14:38.302Z,17.95
2017-03-24T01:15:18.958Z,17.92
2017-03-24T01:15:59.678Z,17.89
2017-03-24T01:16:40.301Z,17.89
2017-03-24T01:17:20.973Z,17.95
2017-03-24T01:18:01.705Z,17.95
2017-03-24T01:18:42.359Z,17.91
2017-03-24T01:19:23.004Z,17.95
2017-03-24T01:20:03.715Z,17.91
2017-03-24T01:20:44.349Z,17.94
2017-03-24T01:21:24.986Z,17.92
2017-03-24T01:22:05.744Z,17.92
2017-03-24T01:22:46.383Z,17.89
2017-03-24T01:23:27.020Z,17.94
2017-03-24T01:24:07.680Z,17.81
2017-03-24T01:24:48.362Z,17.92
2017-03-24T01:25:28.997Z,17.89
2017-03-24T01:26:09.663Z,17.87
2017-03-24T01:26:50.392Z,17.87
2017-03-24T01:27:31.037Z,17.79
2017-03-24T01:28:11.684Z,17.89
2017-03-24T01:28:52.324Z,17.95
2017-03-24T01:29:32.953Z,17.97
2017-03-24T01:30:13.586Z,17.87
2017-03-24T01:30:54.248Z,17.88
2017-03-24T01:31:34.926Z,17.91
2017-03-24T01:32:15.561Z,17.89
2017-03-24T01:32:56.203Z,17.81
2017-03-24T01:33:36.851Z,17.84
2017-03-24T01:34:17.489Z,17.89
2017-03-24T01:34:58.199Z,17.78
2017-03-24T01:35:38.958Z,17.88
2017-03-24T01:36:19.591Z,17.82
2017-03-24T01:37:00.295Z,17.85
2017-03-24T01:37:40.986Z,17.84
2017-03-24T01:38:21.621Z,17.79
2017-03-24T01:39:02.252Z,17.81
2017-03-24T01:39:42.887Z,17.92
2017-03-24T01:40:23.557Z,17.89
2017-03-24T01:41:04.202Z,17.82
2017-03-24T01:41:44.882Z,17.79
2017-03-24T01:42:25.512Z,17.79
2017-03-24T01:43:06.134Z,17.82
2017-03-24T01:43:46.764Z,17.71
2017-03-24T01:44:27.401Z,17.85
2017-03-24T01:45:08.028Z,17.85
2017-03-24T01:45:48.751Z,17.76
2017-03-24T01:46:29.493Z,17.82
2017-03-24T01:47:10.124Z,17.76
2017-03-24T01:47:50.796Z,17.81
2017-03-24T01:48:31.525Z,17.74
2017-03-24T01:49:12.167Z,17.81
2017-03-24T01:49:52.804Z,17.79
2017-03-24T01:50:33.467Z,17.74
2017-03-24T01:51:14.134Z,17.78
2017-03-24T01:51:54.756Z,17.74
2017-03-24T01:52:35.378Z,17.78
2017-03-24T01:53:16.003Z,17.88
2017-03-24T01:53:56.640Z,17.79
2017-03-24T01:54:37.266Z,17.85
2017-03-24T01:55:17.993Z,17.73
2017-03-24T01:55:58.630Z,17.84
2017-03-24T01:56:39.354Z,17.73
2017-03-24T01:57:19.980Z,17.85
2017-03-24T01:58:00.606Z,17.76
2017-03-24T01:58:41.245Z,17.73
2017-03-24T01:59:21.977Z,17.78
2017-03-24T02:00:02.608Z,17.69
2017-03-24T02:00:43.305Z,17.71
2017-03-24T02:01:23.936Z,17.74
2017-03-24T02:02:04.572Z,17.81
2017-03-24T02:02:45.241Z,17.76
2017-03-24T02:03:25.902Z,17.7
2017-03-24T02:04:06.623Z,17.76
2017-03-24T02:04:47.267Z,17.73
2017-03-24T02:05:27.915Z,17.7
2017-03-24T02:06:08.594Z,17.73
2017-03-24T02:06:49.232Z,17.81
2017-03-24T02:07:29.878Z,17.79
2017-03-24T02:08:10.560Z,17.74
2017-03-24T02:08:51.189Z,17.81
2017-03-24T02:09:31.828Z,17.7
2017-03-24T02:10:12.508Z,17.78
2017-03-24T02:10:53.110Z,17.73
2017-03-24T02:11:33.731Z,17.71
2017-03-24T02:12:14.451Z,17.67
2017-03-24T02:12:55.077Z,17.78
2017-03-24T02:13:35.696Z,17.78
2017-03-24T02:14:16.336Z,17.73
2017-03-24T02:14:56.973Z,17.69
2017-03-24T02:15:37.608Z,17.73
2017-03-24T02:16:18.268Z,17.63
2017-03-24T02:16:58.893Z,17.7
2017-03-24T02:17:39.546Z,17.7
2017-03-24T02:18:20.224Z,17.63
2017-03-24T02:19:00.857Z,17.71
2017-03-24T02:19:41.484Z,17.69
2017-03-24T02:20:22.131Z,17.69
2017-03-24T02:21:02.757Z,17.62
2017-03-24T02:21:43.506Z,17.66
2017-03-24T02:22:24.133Z,17.62
2017-03-24T02:23:04.781Z,17.62
2017-03-24T02:23:45.391Z,17.66
2017-03-24T02:24:26.088Z,17.59
2017-03-24T02:25:06.743Z,17.69
2017-03-24T02:25:47.382Z,17.57
2017-03-24T02:26:28.131Z,17.64
2017-03-24T02:27:08.858Z,17.59
2017-03-24T02:27:49.479Z,17.69
2017-03-24T02:28:30.155Z,17.67
2017-03-24T02:29:10.814Z,17.66
2017-03-24T02:29:51.438Z,17.57
2017-03-24T02:30:32.117Z,17.64
2017-03-24T02:31:12.738Z,17.62
2017-03-24T02:31:53.375Z,17.66
2017-03-24T02:32:34.000Z,17.63
2017-03-24T02:33:14.711Z,17.64
2017-03-24T02:33:55.341Z,17.63
2017-03-24T02:34:35.966Z,17.59
2017-03-24T02:35:16.661Z,17.67
2017-03-24T02:35:57.282Z,17.62
2017-03-24T02:36:37.972Z,17.7
2017-03-24T02:37:18.690Z,17.59
2017-03-24T02:37:59.440Z,17.67
2017-03-24T02:38:40.076Z,17.55
2017-03-24T02:39:20.817Z,17.59
2017-03-24T02:40:01.499Z,17.54
2017-03-24T02:40:42.122Z,17.55
2017-03-24T02:41:22.751Z,17.59
2017-03-24T02:42:03.417Z,17.59
2017-03-24T02:42:44.055Z,17.59
2017-03-24T02:43:24.695Z,17.57
2017-03-24T02:44:05.422Z,17.57
2017-03-24T02:44:46.173Z,17.55
2017-03-24T02:45:26.800Z,17.55
2017-03-24T02:46:07.454Z,17.53
2017-03-24T02:46:48.106Z,17.57
2017-03-24T02:47:28.736Z,17.62
2017-03-24T02:48:09.424Z,17.51
2017-03-24T02:48:50.119Z,17.53
2017-03-24T02:49:30.788Z,17.57
2017-03-24T02:50:11.426Z,17.57
2017-03-24T02:50:52.157Z,17.53
2017-03-24T02:51:32.891Z,17.54
2017-03-24T02:52:13.513Z,17.53
2017-03-24T02:52:54.203Z,17.54
2017-03-24T02:53:34.860Z,17.59
2017-03-24T02:54:15.486Z,17.54
2017-03-24T02:54:56.113Z,17.55
2017-03-24T02:55:36.753Z,17.5
2017-03-24T02:56:17.376Z,17.59
2017-03-24T02:56:58.001Z,17.55
2017-03-24T02:57:38.621Z,17.59
2017-03-24T02:58:19.256Z,17.5
2017-03-24T02:58:59.941Z,17.46
2017-03-24T02:59:40.564Z,17.48
2017-03-24T03:00:21.199Z,17.5
2017-03-24T03:01:01.822Z,17.5
2017-03-24T03:01:42.544Z,17.5
2017-03-24T03:02:23.171Z,17.41
2017-03-24T03:03:03.872Z,17.5
2017-03-24T03:03:44.497Z,17.47
2017-03-24T03:04:25.176Z,17.48
2017-03-24T03:05:05.770Z,17.51
2017-03-24T03:05:46.408Z,17.57
2017-03-24T03:06:27.034Z,17.57
2017-03-24T03:07:07.670Z,17.57
2017-03-24T03:07:48.303Z,17.47
2017-03-24T03:08:29.027Z,17.46
2017-03-24T03:09:09.570Z,17.51
2017-03-24T03:09:50.250Z,17.43
2017-03-24T03:10:30.958Z,17.46
2017-03-24T03:11:11.511Z,17.53
2017-03-24T03:11:52.206Z,17.53
2017-03-24T03:12:32.843Z,17.51
2017-03-24T03:13:13.468Z,17.5
2017-03-24T03:13:54.092Z,17.47
2017-03-24T03:14:34.717Z,17.43
2017-03-24T03:15:15.350Z,17.43
2017-03-24T03:15:55.989Z,17.46
2017-03-24T03:16:36.610Z,17.48
2017-03-24T03:17:17.254Z,17.47
2017-03-24T03:17:57.951Z,17.47
2017-03-24T03:18:38.613Z,17.46
2017-03-24T03:19:19.253Z,17.5
2017-03-24T03:19:59.909Z,17.47
2017-03-24T03:20:40.591Z,17.46
2017-03-24T03:21:21.220Z,17.47
2017-03-24T03:22:01.902Z,17.46
2017-03-24T03:22:42.545Z,17.47
2017-03-24T03:23:23.176Z,17.44
2017-03-24T03:24:03.870Z,17.43
2017-03-24T03:24:44.582Z,17.46
2017-03-24T03:25:25.208Z,17.41
2017-03-24T03:26:05.873Z,17.47
2017-03-24T03:26:46.630Z,17.47
2017-03-24T03:27:27.270Z,17.48
2017-03-24T03:28:07.901Z,17.46
2017-03-24T03:28:48.556Z,17.44
2017-03-24T03:29:29.184Z,17.36
2017-03-24T03:30:09.808Z,17.41
2017-03-24T03:30:50.436Z,17.46
2017-03-24T03:31:31.186Z,17.4
2017-03-24T03:32:11.826Z,17.43
2017-03-24T03:32:52.494Z,17.38
2017-03-24T03:33:33.227Z,17.38
2017-03-24T03:34:13.855Z,17.47
2017-03-24T03:34:54.545Z,17.43
2017-03-24T03:35:35.182Z,17.46
2017-03-24T03:36:15.808Z,17.43
2017-03-24T03:36:56.443Z,17.41
2017-03-24T03:37:37.178Z,17.43
2017-03-24T03:38:17.853Z,17.43
2017-03-24T03:38:58.498Z,17.44
2017-03-24T03:39:39.249Z,17.48
2017-03-24T03:40:19.936Z,17.41
2017-03-24T03:41:00.557Z,17.36
2017-03-24T03:41:41.258Z,17.41
2017-03-24T03:42:21.929Z,17.4
2017-03-24T03:43:02.552Z,17.35
2017-03-24T03:43:43.190Z,17.35
2017-03-24T03:44:23.935Z,17.36
2017-03-24T03:45:04.573Z,17.4
2017-03-24T03:45:45.204Z,17.4
2017-03-24T03:46:25.926Z,17.36
2017-03-24T03:47:06.554Z,17.36
2017-03-24T03:47:47.186Z,17.43
2017-03-24T03:48:27.891Z,17.41
2017-03-24T03:49:08.623Z,17.44
2017-03-24T03:49:49.249Z,17.47
2017-03-24T03:50:29.907Z,17.43
2017-03-24T03:51:10.642Z,17.43
2017-03-24T03:51:51.309Z,17.4
2017-03-24T03:52:31.951Z,17.44
2017-03-24T03:53:12.679Z,17.33
2017-03-24T03:53:53.438Z,17.36
2017-03-24T03:54:34.056Z,17.43
2017-03-24T03:55:14.781Z,17.4
2017-03-24T03:55:55.495Z,17.33
2017-03-24T03:56:36.166Z,17.41
2017-03-24T03:57:16.788Z,17.36
2017-03-24T03:57:57.430Z,17.41
2017-03-24T03:58:38.097Z,17.35
2017-03-24T03:59:18.722Z,17.33
2017-03-24T03:59:59.441Z,17.44
2017-03-24T04:00:40.154Z,17.38
2017-03-24T04:01:20.787Z,17.35
2017-03-24T04:02:01.431Z,17.35
2017-03-24T04:02:42.079Z,17.47
2017-03-24T04:03:22.710Z,17.46
2017-03-24T04:04:03.377Z,17.36
2017-03-24T04:04:44.088Z,17.4
2017-03-24T04:05:24.805Z,17.3
2017-03-24T04:06:05.491Z,17.32
2017-03-24T04:06:46.140Z,17.36
2017-03-24T04:07:26.776Z,17.43
2017-03-24T04:08:07.403Z,17.33
2017-03-24T04:08:48.084Z,17.4
2017-03-24T04:09:28.838Z,17.35
2017-03-24T04:10:09.485Z,17.38
2017-03-24T04:10:50.102Z,17.4
2017-03-24T04:11:30.827Z,17.38
2017-03-24T04:12:11.486Z,17.38
2017-03-24T04:12:52.128Z,17.38
2017-03-24T04:13:32.842Z,17.33
2017-03-24T04:14:13.470Z,17.33
2017-03-24T04:14:54.094Z,17.32
2017-03-24T04:15:34.726Z,17.36
2017-03-24T04:16:15.367Z,17.4
2017-03-24T04:16:56.007Z,17.38
2017-03-24T04:17:36.639Z,17.36
2017-03-24T04:18:17.318Z,17.36
2017-03-24T04:18:57.951Z,17.4
2017-03-24T04:19:38.580Z,17.35
2017-03-24T04:20:19.217Z,17.35
2017-03-24T04:20:59.854Z,17.29
2017-03-24T04:21:40.476Z,17.3
2017-03-24T04:22:21.161Z,17.38
2017-03-24T04:23:01.792Z,17.36
2017-03-24T04:23:42.416Z,17.3
2017-03-24T04:24:23.063Z,17.32
2017-03-24T04:25:03.686Z,17.35
2017-03-24T04:25:44.307Z,17.33
2017-03-24T04:26:25.028Z,17.32
2017-03-24T04:27:05.682Z,17.38
2017-03-24T04:27:46.279Z,17.33
2017-03-24T04:28:26.919Z,17.4
2017-03-24T04:29:07.545Z,17.3
2017-03-24T04:29:48.174Z,17.26
2017-03-24T04:30:28.799Z,17.35
2017-03-24T04:31:09.450Z,17.36
2017-03-24T04:31:50.106Z,17.36
2017-03-24T04:32:30.734Z,17.32
2017-03-24T04:33:11.371Z,17.3
2017-03-24T04:33:52.765Z,17.29
2017-03-24T04:34:33.383Z,17.29
2017-03-24T04:35:14.022Z,17.32
2017-03-24T04:35:54.745Z,17.29
2017-03-24T04:36:35.370Z,17.3
2017-03-24T04:37:16.001Z,17.36
2017-03-24T04:37:56.628Z,17.35
2017-03-24T04:38:37.254Z,17.35
2017-03-24T04:39:17.884Z,17.35
2017-03-24T04:39:58.554Z,17.26
2017-03-24T04:40:39.174Z,17.28
2017-03-24T04:41:19.800Z,17.28
2017-03-24T04:42:00.430Z,17.28
2017-03-24T04:42:41.058Z,17.35
2017-03-24T04:43:21.680Z,17.29
2017-03-24T04:44:02.371Z,17.29
2017-03-24T04:44:42.995Z,17.26
2017-03-24T04:45:23.624Z,17.29
2017-03-24T04:46:04.290Z,17.29
2017-03-24T04:46:44.913Z,17.25
2017-03-24T04:47:25.541Z,17.32
2017-03-24T04:48:06.257Z,17.33
2017-03-24T04:48:46.897Z,17.28
2017-03-24T04:49:27.550Z,17.3
2017-03-24T04:50:08.254Z,17.32
2017-03-24T04:50:48.876Z,17.2
2017-03-24T04:51:29.583Z,17.36
2017-03-24T04:52:10.213Z,17.25
2017-03-24T04:52:50.849Z,17.15
2017-03-24T04:53:31.473Z,17.15
2017-03-24T04:54:12.106Z,17.26
2017-03-24T04:54:52.742Z,17.17
2017-03-24T04:55:33.386Z,17.18
2017-03-24T04:56:14.081Z,17.17
2017-03-24T04:56:54.707Z,17.22
2017-03-24T04:57:35.332Z,17.17
2017-03-24T04:58:16.014Z,17.18
2017-03-24T04:58:56.689Z,17.14
2017-03-24T04:59:37.324Z,17.23
2017-03-24T05:00:18.062Z,17.13
2017-03-24T05:00:58.763Z,17.11
2017-03-24T05:01:39.384Z,17.22
2017-03-24T05:02:20.135Z,17.17
2017-03-24T05:03:00.764Z,17.17
2017-03-24T05:03:41.476Z,17.22
2017-03-24T05:04:22.014Z,17.14
2017-03-24T05:05:02.699Z,17.15
2017-03-24T05:05:43.369Z,17.22
2017-03-24T05:06:24.019Z,17.15
2017-03-24T05:07:04.645Z,17.2
2017-03-24T05:07:45.318Z,17.13
2017-03-24T05:08:25.959Z,17.14
2017-03-24T05:09:06.643Z,17.23
2017-03-24T05:09:47.272Z,17.25
2017-03-24T05:10:27.896Z,17.17
2017-03-24T05:11:08.516Z,17.1
2017-03-24T05:11:49.192Z,17.25
2017-03-24T05:12:29.831Z,17.11
2017-03-24T05:13:10.534Z,17.07
2017-03-24T05:13:51.166Z,17.15
2017-03-24T05:14:31.805Z,17.11
2017-03-24T05:15:12.431Z,17.17
2017-03-24T05:15:53.169Z,17.22
2017-03-24T05:16:33.798Z,17.14
2017-03-24T05:17:14.429Z,17.14
2017-03-24T05:17:55.059Z,17.17
2017-03-24T05:18:35.683Z,17.14
2017-03-24T05:19:16.402Z,17.15
2017-03-24T05:19:57.092Z,17.13
2017-03-24T05:20:37.753Z,17.11
2017-03-24T05:21:18.380Z,17.13
2017-03-24T05:21:59.005Z,17.14
2017-03-24T05:22:39.686Z,17.17
2017-03-24T05:23:20.280Z,17.08
2017-03-24T05:24:00.916Z,17.11
2017-03-24T05:24:41.609Z,17.11
2017-03-24T05:25:22.303Z,17.11
2017-03-24T05:26:03.022Z,17.15
2017-03-24T05:26:43.651Z,17.14
2017-03-24T05:27:24.293Z,17.18
2017-03-24T05:28:04.936Z,17.11
2017-03-24T05:28:45.582Z,17.15
2017-03-24T05:29:26.219Z,17.14
2017-03-24T05:30:06.851Z,17.08
2017-03-24T05:30:47.601Z,17.11
2017-03-24T05:31:28.220Z,17.13
2017-03-24T05:32:09.506Z,17.17
2017-03-24T05:32:50.135Z,17.11
2017-03-24T05:33:30.807Z,17.1
2017-03-24T05:34:11.539Z,17.11
2017-03-24T05:34:52.164Z,17.04
2017-03-24T05:35:32.843Z,17.07
2017-03-24T05:36:13.555Z,17.13
2017-03-24T05:36:54.183Z,17.13
2017-03-24T05:37:34.810Z,17.11
2017-03-24T05:38:15.452Z,17.03
2017-03-24T05:38:56.104Z,17.11
2017-03-24T05:39:36.731Z,17.14
2017-03-24T05:40:17.362Z,17.04
2017-03-24T05:40:57.999Z,17.11
2017-03-24T05:41:38.623Z,17.1
2017-03-24T05:42:19.341Z,17.1
2017-03-24T05:42:59.973Z,17.17
2017-03-24T05:43:40.601Z,17.07
2017-03-24T05:44:21.267Z,17.07
2017-03-24T05:45:01.896Z,17.14
2017-03-24T05:45:42.512Z,17.04
2017-03-24T05:46:23.214Z,17.1
2017-03-24T05:47:03.843Z,17.14
2017-03-24T05:47:44.466Z,17.08
2017-03-24T05:48:25.088Z,17.13
2017-03-24T05:49:05.777Z,17.11
2017-03-24T05:49:46.403Z,17.1
2017-03-24T05:50:27.053Z,17.07
2017-03-24T05:51:07.683Z,17.14
2017-03-24T05:51:48.321Z,17.1
2017-03-24T05:52:28.942Z,17.13
2017-03-24T05:53:09.627Z,17.1
2017-03-24T05:53:50.243Z,17.08
2017-03-24T05:54:30.882Z,17.11
2017-03-24T05:55:11.534Z,17.13
2017-03-24T05:55:52.158Z,17.15
2017-03-24T05:56:32.789Z,17.15
2017-03-24T05:57:13.518Z,17.1
2017-03-24T05:57:54.142Z,17.15
2017-03-24T05:58:34.768Z,17.13
2017-03-24T05:59:15.436Z,17.18
2017-03-24T05:59:56.063Z,17.13
2017-03-24T06:00:36.694Z,17.1
2017-03-24T06:01:17.380Z,17.1
2017-03-24T06:01:58.005Z,17.14
2017-03-24T06:02:38.684Z,17.11
2017-03-24T06:03:19.403Z,17.14
2017-03-24T06:04:00.099Z,17.18
2017-03-24T06:04:40.761Z,17.1
2017-03-24T06:05:21.458Z,17.1
2017-03-24T06:06:02.155Z,17.08
2017-03-24T06:06:42.782Z,17.13
2017-03-24T06:07:23.429Z,17.15
2017-03-24T06:08:04.083Z,17.11
2017-03-24T06:08:44.712Z,17.15
2017-03-24T06:09:25.353Z,17.08
2017-03-24T06:10:06.014Z,17.11
2017-03-24T06:10:46.643Z,17.14
2017-03-24T06:11:27.384Z,17.14
2017-03-24T06:12:08.059Z,17.13
2017-03-24T06:12:48.782Z,17.11
2017-03-24T06:13:29.424Z,17.13
2017-03-24T06:14:10.072Z,17.15
2017-03-24T06:14:50.791Z,17.08
2017-03-24T06:15:31.416Z,17.08
2017-03-24T06:16:12.091Z,17.07
2017-03-24T06:16:52.757Z,17.1
2017-03-24T06:17:33.385Z,17.13
2017-03-24T06:18:14.093Z,17.04
2017-03-24T06:18:54.690Z,17.07
2017-03-24T06:19:35.312Z,17.11
2017-03-24T06:20:15.980Z,17.14
2017-03-24T06:20:56.703Z,17.1
2017-03-24T06:21:37.347Z,17.1
2017-03-24T06:22:17.971Z,17.13
2017-03-24T06:22:58.616Z,17.08
2017-03-24T06:23:39.265Z,17.08
2017-03-24T06:24:19.909Z,17.11
2017-03-24T06:25:00.631Z,17.15
2017-03-24T06:25:41.259Z,17.13
2017-03-24T06:26:21.884Z,17.13
2017-03-24T06:27:03.300Z,17.14
2017-03-24T06:27:43.936Z,17.15
2017-03-24T06:28:24.672Z,17.11
2017-03-24T06:29:05.288Z,17.14
2017-03-24T06:29:45.919Z,17.07
2017-03-24T06:30:26.627Z,17.1
2017-03-24T06:31:07.259Z,17.13
2017-03-24T06:31:47.935Z,17.13
2017-03-24T06:32:28.532Z,17.13
2017-03-24T06:33:09.175Z,17.04
2017-03-24T06:33:49.841Z,17.08
2017-03-24T06:34:30.478Z,17.1
2017-03-24T06:35:11.116Z,17.13
2017-03-24T06:35:51.813Z,17.04
2017-03-24T06:36:32.456Z,17.08
2017-03-24T06:37:13.098Z,17.08
2017-03-24T06:37:53.793Z,17.04
2017-03-24T06:38:34.427Z,17.1
2017-03-24T06:39:15.119Z,17.08
2017-03-24T06:39:55.805Z,17.13
2017-03-24T06:40:36.438Z,17.04
2017-03-24T06:41:17.066Z,17.13
2017-03-24T06:41:57.744Z,17.08
2017-03-24T06:42:38.368Z,17.13
2017-03-24T06:43:18.999Z,17.1
2017-03-24T06:43:59.667Z,17.13
2017-03-24T06:44:40.290Z,17.07
2017-03-24T06:45:21.006Z,17.06
2017-03-24T06:46:01.693Z,17.08
2017-03-24T06:46:42.335Z,17.14
2017-03-24T06:47:22.963Z,17.1
2017-03-24T06:48:03.652Z,17.08
2017-03-24T06:48:44.292Z,17.1
2017-03-24T06:49:24.923Z,17.14
2017-03-24T06:50:05.609Z,17.07
2017-03-24T06:50:46.244Z,17.04
2017-03-24T06:51:26.875Z,17.14
2017-03-24T06:52:07.579Z,17.08
2017-03-24T06:52:48.283Z,17.07
2017-03-24T06:53:28.907Z,17.08
2017-03-24T06:54:09.580Z,16.98
2017-03-24T06:54:50.252Z,17.04
2017-03-24T06:55:30.879Z,17.1
2017-03-24T06:56:11.549Z,17.07
2017-03-24T06:56:52.237Z,17.1
2017-03-24T06:57:32.859Z,17.07
2017-03-24T06:58:13.490Z,17.04
2017-03-24T06:58:54.167Z,17.04
2017-03-24T06:59:34.828Z,17.13
2017-03-24T07:00:15.468Z,17.04
2017-03-24T07:00:56.122Z,17.13
2017-03-24T07:01:36.805Z,17.1
2017-03-24T07:02:17.450Z,17.04
2017-03-24T07:02:58.081Z,17.07
2017-03-24T07:03:38.710Z,17.1
2017-03-24T07:04:19.352Z,17.13
2017-03-24T07:05:00.028Z,17.15
2017-03-24T07:05:40.664Z,17.13
2017-03-24T07:06:21.284Z,17.13
2017-03-24T07:07:01.973Z,17.1
2017-03-24T07:07:42.619Z,17.07
2017-03-24T07:08:23.250Z,17.11
2017-03-24T07:09:03.914Z,17.08
2017-03-24T07:09:44.545Z,17.04
2017-03-24T07:10:25.172Z,17.1
2017-03-24T07:11:05.797Z,17.03
2017-03-24T07:11:46.447Z,17.1
2017-03-24T07:12:27.080Z,17.07
2017-03-24T07:13:07.704Z,17.08
2017-03-24T07:13:48.358Z,17.06
2017-03-24T07:14:28.994Z,17.14
2017-03-24T07:15:09.620Z,17.08
2017-03-24T07:15:50.322Z,17.07
2017-03-24T07:16:30.950Z,17.07
2017-03-24T07:17:11.638Z,17.1
2017-03-24T07:17:52.338Z,17.1
2017-03-24T07:18:32.960Z,17.1
2017-03-24T07:19:13.646Z,17.07
2017-03-24T07:19:54.271Z,17.07
2017-03-24T07:20:34.917Z,17.06
2017-03-24T07:21:15.548Z,17.08
2017-03-24T07:21:56.218Z,17.07
2017-03-24T07:22:36.855Z,17.1
2017-03-24T07:23:17.472Z,17.1
2017-03-24T07:23:58.106Z,17.11
2017-03-24T07:24:38.748Z,17.07
2017-03-24T07:25:19.416Z,17.07
2017-03-24T07:26:00.100Z,17.1
2017-03-24T07:26:40.731Z,17.04
2017-03-24T07:27:21.365Z,17.13
2017-03-24T07:28:02.041Z,17.13
2017-03-24T07:28:42.665Z,17.15
2017-03-24T07:29:23.308Z,17.11
2017-03-24T07:30:03.964Z,17.11
2017-03-24T07:30:44.642Z,17.13
2017-03-24T07:31:25.285Z,17.15
2017-03-24T07:32:05.981Z,17.13
2017-03-24T07:32:46.739Z,17.04
2017-03-24T07:33:27.358Z,17.08
2017-03-24T07:34:08.072Z,17.04
2017-03-24T07:34:48.798Z,17.04
2017-03-24T07:35:29.435Z,17.04
2017-03-24T07:36:10.062Z,17.04
2017-03-24T07:36:50.749Z,17.07
2017-03-24T07:37:31.384Z,17.07
2017-03-24T07:38:12.013Z,17.03
2017-03-24T07:38:52.707Z,17.07
2017-03-24T07:39:33.427Z,17.08
2017-03-24T07:40:14.052Z,17.03
2017-03-24T07:40:54.721Z,17.14
2017-03-24T07:41:35.359Z,17.08
2017-03-24T07:42:15.983Z,17.14
2017-03-24T07:42:56.655Z,17.14
2017-03-24T07:43:37.342Z,17.14
2017-03-24T07:44:18.102Z,17.14
2017-03-24T07:44:58.690Z,17.04
2017-03-24T07:45:39.346Z,17.1
2017-03-24T07:46:19.984Z,17.08
2017-03-24T07:47:00.604Z,17.08
2017-03-24T07:47:41.266Z,17.11
2017-03-24T07:48:21.900Z,17.11
2017-03-24T07:49:02.539Z,17.07
2017-03-24T07:49:43.269Z,16.99
2017-03-24T07:50:23.899Z,17.08
2017-03-24T07:51:04.542Z,17.07
2017-03-24T07:51:45.218Z,17.1
2017-03-24T07:52:25.934Z,17.07
2017-03-24T07:53:06.564Z,16.99
2017-03-24T07:53:47.196Z,17.07
2017-03-24T07:54:27.835Z,17.08
2017-03-24T07:55:08.473Z,17.13
2017-03-24T07:55:49.237Z,17.08
2017-03-24T07:56:29.952Z,17.04
2017-03-24T07:57:10.606Z,17.1
2017-03-24T07:57:51.237Z,17.13
2017-03-24T07:58:31.965Z,17.06
2017-03-24T07:59:12.645Z,17.03
2017-03-24T07:59:53.270Z,17.1
2017-03-24T08:00:33.969Z,17.07
2017-03-24T08:01:14.680Z,17.1
2017-03-24T08:01:55.396Z,17.11
2017-03-24T08:02:35.920Z,17.07
2017-03-24T08:03:16.616Z,17.07
2017-03-24T08:03:57.301Z,17
2017-03-24T08:04:37.918Z,17.08
2017-03-24T08:05:18.631Z,17.07
2017-03-24T08:05:59.253Z,17.06
2017-03-24T08:06:39.872Z,17.08
2017-03-24T08:07:20.567Z,17.03
2017-03-24T08:08:01.299Z,17.07
2017-03-24T08:08:41.932Z,17.07
2017-03-24T08:09:22.655Z,17.13
2017-03-24T08:10:03.354Z,17.1
2017-03-24T08:10:44.020Z,17.08
2017-03-24T08:11:24.664Z,17.07
2017-03-24T08:12:05.370Z,17.11
2017-03-24T08:12:46.071Z,17.07
2017-03-24T08:13:26.687Z,17.07
2017-03-24T08:14:07.312Z,17.1
2017-03-24T08:14:48.048Z,17.13
2017-03-24T08:15:28.660Z,17.06
2017-03-24T08:16:09.341Z,17.04
2017-03-24T08:16:50.078Z,17.13
2017-03-24T08:17:30.740Z,17.1
2017-03-24T08:18:11.376Z,17.04
2017-03-24T08:18:52.103Z,17.13
2017-03-24T08:19:32.733Z,17.1
2017-03-24T08:20:13.372Z,17.04
2017-03-24T08:20:54.052Z,17.11
2017-03-24T08:21:34.762Z,17.13
2017-03-24T08:22:15.412Z,17.1
2017-03-24T08:22:56.061Z,17.15
2017-03-24T08:23:36.752Z,17.13
2017-03-24T08:24:17.391Z,17.06
2017-03-24T08:24:58.038Z,17.04
2017-03-24T08:25:38.727Z,17.04
2017-03-24T08:26:19.393Z,17.07
2017-03-24T08:27:00.058Z,17.06
2017-03-24T08:27:40.751Z,17.1
2017-03-24T08:28:21.396Z,17.11
2017-03-24T08:29:02.019Z,17.1
2017-03-24T08:29:42.711Z,17.13
2017-03-24T08:30:23.446Z,17.04
2017-03-24T08:31:04.073Z,17.04
2017-03-24T08:31:44.724Z,17.13
2017-03-24T08:32:25.459Z,17.1
2017-03-24T08:33:06.121Z,17.11
2017-03-24T08:33:46.758Z,17.14
2017-03-24T08:34:27.481Z,17.04
2017-03-24T08:35:08.107Z,17.11
2017-03-24T08:35:48.731Z,17.1
2017-03-24T08:36:29.423Z,17.15
2017-03-24T08:37:10.164Z,17.08
2017-03-24T08:37:50.797Z,17.13
2017-03-24T08:38:31.452Z,17.11
2017-03-24T08:39:12.183Z,17.11
2017-03-24T08:39:52.854Z,17.13
2017-03-24T08:40:33.491Z,17.13
2017-03-24T08:41:14.208Z,17.06
2017-03-24T08:41:54.896Z,17.1
2017-03-24T08:42:35.520Z,17.1
2017-03-24T08:43:16.169Z,17.13
2017-03-24T08:43:56.882Z,17.14
2017-03-24T08:44:37.510Z,17.17
2017-03-24T08:45:18.209Z,17.14